Terminal Aerodrome Forecast
Issued by NWS

Home | Current Version | Previous Version | Graphics & Text | Print | Product List | Glossary On
Versions: 1 2 3 4 5 6 7 8 9 10 11 12 13 14 15 16 17 18 19
000
FTUS43 KGRB 221700
TAFAUW
TAF
KAUW 221738Z 2218/2318 25007KT P6SM FEW018
     FM230400 23011KT P6SM BKN200 WS020/25040KT
     FM231100 23012KT P6SM OVC100 WS015/25045KT
     FM231500 24015G30KT P6SM OVC040 WS020/27045KT PROB30 2315/2318
      3SM -SN OVC025=

USA.gov is the U.S. government's official web portal to all federal, state and local government web resources and services.